Time;durP1;ratioP1;P1;durP2;ratioP2;P2;SDS_P1;SDS_P2;PMS_P1;PMS_P2;Temp;Humidity;BMP_temperature;BMP_pressure;BME280_temperature;BME280_humidity;BME280_pressure;Samples;Min_cycle;Max_cycle;Signal;HPM_P1;HPM_P2
2023/01/25 00:00:53;;;;;;;33.08;23.00;;;;;;;;;;5052964;28;20033;-51
2023/01/25 00:03:19;;;;;;;34.63;23.70;;;;;;;;;;5051939;28;20127;-50
2023/01/25 00:05:45;;;;;;;33.67;23.13;;;;;;;;;;5053168;28;20048;-50
2023/01/25 00:08:11;;;;;;;35.60;23.77;;;;;;;;;;5052988;28;20048;-50
2023/01/25 00:10:37;;;;;;;35.40;23.88;;;;;;;;;;5052207;28;20519;-47
2023/01/25 00:13:03;;;;;;;33.00;23.27;;;;;;;;;;5053005;28;20051;-51
2023/01/25 00:15:30;;;;;;;32.50;23.50;;;;;;;;;;5054159;28;20080;-49
2023/01/25 00:17:56;;;;;;;35.95;24.35;;;;;;;;;;5053407;28;20040;-47
2023/01/25 00:20:22;;;;;;;36.22;24.52;;;;;;;;;;5052021;28;20044;-50
2023/01/25 00:22:48;;;;;;;36.22;22.95;;;;;;;;;;5052366;28;20033;-50
2023/01/25 00:25:14;;;;;;;31.42;22.05;;;;;;;;;;5053758;28;20070;-52
2023/01/25 00:27:40;;;;;;;35.63;25.10;;;;;;;;;;5054010;28;20829;-51
2023/01/25 00:30:06;;;;;;;34.78;23.77;;;0.20;99.90;;;;;;5053710;28;20139;-51
2023/01/25 00:32:47;;;;;;;37.00;24.05;;;0.30;99.90;;;;;;5051541;28;20215;-51
2023/01/25 00:35:13;;;;;;;34.85;23.30;;;;;;;;;;5051847;28;20056;-51
2023/01/25 00:37:42;;;;;;;36.40;24.45;;;-0.20;99.90;;;;;;5052122;28;20094;-52
2023/01/25 00:40:10;;;;;;;37.20;24.90;;;;;;;;;;5051699;28;20115;-50
2023/01/25 00:42:36;;;;;;;37.05;25.67;;;;;;;;;;5051858;28;20422;-50
2023/01/25 00:45:02;;;;;;;40.03;25.65;;;;;;;;;;5052482;28;20044;-48
2023/01/25 00:47:28;;;;;;;35.15;24.17;;;;;;;;;;5051586;28;20036;-52
2023/01/25 00:49:54;;;;;;;37.78;24.88;;;;;;;;;;5051411;28;20713;-52
2023/01/25 00:52:21;;;;;;;35.75;25.00;;;;;;;;;;5050449;28;20048;-48
2023/01/25 00:54:48;;;;;;;39.30;24.98;;;;;;;;;;5052135;28;20044;-49
2023/01/25 00:57:14;;;;;;;34.50;24.98;;;;;;;;;;5051078;28;20040;-50
2023/01/25 00:59:43;;;;;;;39.65;26.17;;;;;;;;;;5052386;28;20125;-49
2023/01/25 01:02:09;;;;;;;40.10;26.27;;;;;;;;;;5050540;28;20080;-52
2023/01/25 01:04:35;;;;;;;37.17;25.42;;;;;;;;;;5051667;28;20049;-49
2023/01/25 01:07:02;;;;;;;38.08;25.88;;;;;;;;;;5051693;28;20562;-53
2023/01/25 01:09:28;;;;;;;37.97;27.00;;;;;;;;;;5052482;28;20448;-48
2023/01/25 01:11:54;;;;;;;40.25;26.05;;;;;;;;;;5051652;28;20128;-51
2023/01/25 01:14:21;;;;;;;37.13;25.88;;;0.40;99.90;;;;;;5051462;28;20404;-50
2023/01/25 01:16:47;;;;;;;39.63;26.02;;;;;;;;;;5052074;28;20124;-51
2023/01/25 01:19:13;;;;;;;43.47;28.23;;;;;;;;;;5051747;28;20101;-50
2023/01/25 01:21:39;;;;;;;40.10;26.15;;;;;;;;;;5051179;28;20040;-48
2023/01/25 01:24:05;;;;;;;37.70;26.92;;;0.10;99.90;;;;;;5051205;28;20048;-47
2023/01/25 01:26:32;;;;;;;44.28;28.52;;;;;;;;;;5052217;28;20044;-51
2023/01/25 01:28:58;;;;;;;45.08;29.50;;;;;;;;;;5052295;28;20139;-50
2023/01/25 01:31:24;;;;;;;42.80;27.60;;;;;;;;;;5050175;28;20086;-51
2023/01/25 01:33:51;;;;;;;43.65;28.58;;;;;;;;;;5051577;28;20052;-47
2023/01/25 01:36:19;;;;;;;45.95;30.13;;;0.10;99.90;;;;;;5052222;28;20148;-50
2023/01/25 01:38:45;;;;;;;43.53;28.38;;;;;;;;;;5052089;28;20056;-46
2023/01/25 01:41:12;;;;;;;48.42;30.98;;;;;;;;;;5053668;28;20052;-48
2023/01/25 01:43:38;;;;;;;48.58;31.67;;;;;;;;;;5052839;28;20048;-52
2023/01/25 01:46:25;;;;;;;46.38;30.55;;;-0.10;99.90;;;;;;5051491;28;20063;-49
2023/01/25 01:49:12;;;;;;;45.65;30.00;;;0.10;99.90;;;;;;5048112;28;20404;-51
2023/01/25 01:51:52;;;;;;;50.20;31.38;;;;;;;;;;5052767;28;20145;-52
2023/01/25 01:54:33;;;;;;;50.58;33.05;;;0.10;99.90;;;;;;5051934;28;20055;-52
2023/01/25 01:57:08;;;;;;;47.80;31.63;;;0.10;99.90;;;;;;5052082;28;20401;-50
2023/01/25 01:59:40;;;;;;;52.17;32.25;;;;;;;;;;5052285;28;20036;-47
2023/01/25 02:02:06;;;;;;;49.20;31.30;;;;;;;;;;5050895;28;20543;-50
2023/01/25 02:04:33;;;;;;;55.30;33.88;;;;;;;;;;5052410;28;20045;-48
2023/01/25 02:07:36;;;;;;;53.55;34.63;;;0.10;99.90;;;;;;5051353;28;20052;-51
2023/01/25 02:10:05;;;;;;;56.15;34.17;;;0.10;99.90;;;;;;5051968;28;20049;-49
2023/01/25 02:12:31;;;;;;;55.08;34.38;;;;;;;;;;5051130;28;20587;-50
2023/01/25 02:14:58;;;;;;;59.70;35.15;;;;;;;;;;5054663;28;20055;-49
2023/01/25 02:17:26;;;;;;;58.13;35.15;;;;;;;;;;5054601;28;20055;-47
2023/01/25 02:19:52;;;;;;;58.20;35.28;;;;;;;;;;5054574;28;20036;-50
2023/01/25 02:22:23;;;;;;;61.90;38.60;;;0.30;99.90;;;;;;5055166;28;20798;-48
2023/01/25 02:25:13;;;;;;;56.85;34.60;;;0.00;99.90;;;;;;5054869;28;20098;-51
2023/01/25 02:27:45;;;;;;;59.22;38.92;;;0.20;99.90;;;;;;5054245;28;20412;-50
2023/01/25 02:30:11;;;;;;;57.17;36.20;;;;;;;;;;5052556;28;21445;-52
2023/01/25 02:32:37;;;;;;;59.15;36.72;;;;;;;;;;5055426;28;20037;-50
2023/01/25 02:35:04;;;;;;;61.40;36.97;;;0.30;99.90;;;;;;5053815;28;20044;-51
2023/01/25 02:37:30;;;;;;;60.67;38.55;;;;;;;;;;5054195;28;20051;-48
2023/01/25 02:39:56;;;;;;;62.88;37.90;;;;;;;;;;5054090;28;20074;-49
2023/01/25 02:42:22;;;;;;;59.65;36.05;;;;;;;;;;5055895;28;20405;-48
2023/01/25 02:44:48;;;;;;;57.60;36.25;;;;;;;;;;5054294;28;20140;-46
2023/01/25 02:47:14;;;;;;;59.60;37.63;;;;;;;;;;5053610;28;20037;-51
2023/01/25 02:49:41;;;;;;;61.03;37.85;;;;;;;;;;5054438;28;20139;-52
2023/01/25 02:52:07;;;;;;;58.83;34.72;;;;;;;;;;5054906;28;20182;-50
2023/01/25 02:54:33;;;;;;;63.47;37.15;;;;;;;;;;5053598;28;20350;-51
2023/01/25 02:56:59;;;;;;;62.75;37.45;;;;;;;;;;5055860;28;20040;-50
2023/01/25 02:59:25;;;;;;;62.45;38.28;;;;;;;;;;5055008;28;20048;-48
2023/01/25 03:01:51;;;;;;;61.15;37.08;;;;;;;;;;5056571;28;20044;-49
2023/01/25 03:04:18;;;;;;;65.47;38.10;;;;;;;;;;5055009;28;20188;-50
2023/01/25 03:06:44;;;;;;;61.95;37.22;;;;;;;;;;5054035;28;20055;-49
2023/01/25 03:09:10;;;;;;;63.17;37.90;;;;;;;;;;5053432;28;20053;-51
2023/01/25 03:11:37;;;;;;;74.88;41.85;;;;;;;;;;5055894;28;20040;-49
2023/01/25 03:14:03;;;;;;;64.38;36.88;;;;;;;;;;5053765;28;20056;-48
2023/01/25 03:16:30;;;;;;;68.15;40.55;;;-0.20;99.90;;;;;;5055167;28;20047;-50
2023/01/25 03:18:56;;;;;;;71.70;40.25;;;;;;;;;;5054888;28;20344;-52
2023/01/25 03:21:22;;;;;;;66.82;40.90;;;;;;;;;;5054945;28;20131;-52
2023/01/25 03:23:58;;;;;;;71.65;42.00;;;-0.10;99.90;;;;;;5054254;28;20048;-50
2023/01/25 03:26:26;;;;;;;68.68;38.30;;;-0.10;99.90;;;;;;5053321;28;20111;-47
2023/01/25 03:28:53;;;;;;;72.03;42.08;;;;;;;;;;5053591;28;20540;-47
2023/01/25 03:31:19;;;;;;;68.30;39.10;;;;;;;;;;5054325;28;20051;-47
2023/01/25 03:33:45;;;;;;;65.15;37.38;;;;;;;;;;5053170;28;20528;-47
2023/01/25 03:36:12;;;;;;;71.93;40.80;;;;;;;;;;5053381;28;20106;-50
2023/01/25 03:38:38;;;;;;;71.60;41.15;;;;;;;;;;5053100;28;20371;-49
2023/01/25 03:41:04;;;;;;;66.00;39.38;;;0.00;99.90;;;;;;5053589;28;20064;-50
2023/01/25 03:43:30;;;;;;;66.97;40.08;;;;;;;;;;5053259;28;20527;-49
2023/01/25 03:46:00;;;;;;;69.05;38.80;;;;;;;;;;5053054;28;20131;-50
2023/01/25 03:48:27;;;;;;;62.65;36.38;;;;;;;;;;5052561;28;20456;-46
2023/01/25 03:50:57;;;;;;;62.63;37.50;;;;;;;;;;5052643;28;20136;-51
2023/01/25 03:53:28;;;;;;;65.47;38.83;;;-0.30;99.90;;;;;;5052658;28;20571;-49
2023/01/25 03:55:57;;;;;;;64.18;36.13;;;;;;;;;;5053743;28;20036;-48
2023/01/25 03:58:24;;;;;;;69.28;40.05;;;;;;;;;;5052759;28;20500;-50
2023/01/25 04:00:50;;;;;;;61.25;37.17;;;;;;;;;;5053932;28;20048;-49
2023/01/25 04:03:18;;;;;;;63.72;38.40;;;;;;;;;;5052524;28;20101;-50
2023/01/25 04:05:45;;;;;;;59.80;34.33;;;;;;;;;;5053155;28;20044;-49
2023/01/25 04:08:11;;;;;;;60.92;37.20;;;;;;;;;;5052263;28;20076;-48
2023/01/25 04:10:37;;;;;;;57.10;36.65;;;;;;;;;;5053109;28;20056;-47
2023/01/25 04:13:03;;;;;;;61.15;37.05;;;;;;;;;;5053842;28;20048;-49
2023/01/25 04:15:29;;;;;;;61.78;38.42;;;;;;;;;;5052745;28;20098;-46
2023/01/25 04:17:55;;;;;;;63.97;37.83;;;;;;;;;;5052254;28;20058;-49
2023/01/25 04:20:22;;;;;;;60.38;36.85;;;;;;;;;;5052759;28;22382;-48
2023/01/25 04:22:48;;;;;;;57.95;36.33;;;;;;;;;;5053406;28;20044;-48
2023/01/25 04:25:14;;;;;;;60.65;38.25;;;-0.40;99.90;;;;;;5052760;28;20132;-50
2023/01/25 04:27:40;;;;;;;63.03;37.63;;;;;;;;;;5054335;28;20544;-52
2023/01/25 04:30:06;;;;;;;61.63;36.60;;;;;;;;;;5053615;28;20036;-49
2023/01/25 04:32:34;;;;;;;61.42;36.63;;;;;;;;;;5053996;28;20124;-51
2023/01/25 04:35:00;;;;;;;58.25;35.72;;;;;;;;;;5053478;28;20449;-49
2023/01/25 04:37:26;;;;;;;63.25;38.22;;;;;;;;;;5052744;28;20032;-50
2023/01/25 04:39:52;;;;;;;59.47;36.97;;;;;;;;;;5052972;28;20072;-48
2023/01/25 04:42:18;;;;;;;64.45;38.45;;;;;;;;;;5053552;28;20048;-49
2023/01/25 04:44:44;;;;;;;65.80;40.13;;;;;;;;;;5054174;28;20536;-51
2023/01/25 04:47:10;;;;;;;61.38;36.47;;;;;;;;;;5051631;28;20036;-48
2023/01/25 04:49:37;;;;;;;61.47;37.00;;;;;;;;;;5051909;28;20345;-51
2023/01/25 04:52:04;;;;;;;63.17;37.88;;;;;;;;;;5033803;28;20044;-50
2023/01/25 04:54:30;;;;;;;68.38;40.42;;;;;;;;;;5052309;28;20120;-49
2023/01/25 04:56:56;;;;;;;65.47;39.80;;;;;;;;;;5052229;28;20044;-51
2023/01/25 04:59:22;;;;;;;62.40;38.05;;;;;;;;;;5051090;28;20040;-50
2023/01/25 05:01:48;;;;;;;62.35;38.75;;;;;;;;;;5051765;28;20873;-49
2023/01/25 05:04:14;;;;;;;63.20;38.20;;;;;;;;;;5051055;28;20036;-52
2023/01/25 05:06:41;;;;;;;64.05;39.72;;;;;;;;;;5051840;28;20497;-53
2023/01/25 05:09:07;;;;;;;63.05;37.60;;;;;;;;;;5052772;28;20056;-50
2023/01/25 05:11:33;;;;;;;63.35;37.55;;;;;;;;;;5052379;28;20186;-48
2023/01/25 05:13:59;;;;;;;66.72;39.92;;;;;;;;;;5051568;28;20515;-51
2023/01/25 05:16:25;;;;;;;66.22;39.17;;;;;;;;;;5051397;28;20050;-52
2023/01/25 05:18:51;;;;;;;61.95;38.55;;;;;;;;;;5052523;28;20048;-48
2023/01/25 05:24:02;;;;;;;63.65;36.55;;;;;;;;;;5050982;28;20500;-51
2023/01/25 05:29:13;;;;;;;66.05;38.80;;;;;;;;;;5084413;28;20091;-48
2023/01/25 05:31:39;;;;;;;64.53;37.97;;;;;;;;;;5051662;28;20149;-51
2023/01/25 05:34:05;;;;;;;64.72;37.83;;;;;;;;;;5050784;28;20049;-50
2023/01/25 05:36:31;;;;;;;61.58;37.28;;;;;;;;;;5051707;28;20983;-52
2023/01/25 05:38:57;;;;;;;63.85;38.83;;;;;;;;;;5052893;28;20101;-52
2023/01/25 05:41:24;;;;;;;60.28;37.13;;;;;;;;;;5052912;28;20366;-51
2023/01/25 05:43:50;;;;;;;61.97;38.58;;;;;;;;;;5053379;28;20037;-46
2023/01/25 05:46:16;;;;;;;61.08;38.22;;;;;;;;;;5053008;28;20048;-49
2023/01/25 05:48:42;;;;;;;65.90;38.92;;;;;;;;;;5053848;28;20144;-52
2023/01/25 05:51:08;;;;;;;62.15;38.47;;;;;;;;;;5057460;28;20056;-52
2023/01/25 05:53:34;;;;;;;57.25;35.22;;;;;;;;;;5056859;28;20115;-47
2023/01/25 05:56:04;;;;;;;59.50;36.67;;;;;;;;;;5057062;28;20409;-50
2023/01/25 05:58:31;;;;;;;57.83;36.30;;;;;;;;;;5053868;28;20037;-51
2023/01/25 06:00:59;;;;;;;58.72;37.03;;;;;;;;;;5055113;28;20147;-52
2023/01/25 06:03:25;;;;;;;57.20;35.83;;;;;;;;;;5054242;28;20354;-53
2023/01/25 06:06:00;;;;;;;60.42;37.53;;;-0.40;99.90;;;;;;5055426;28;20052;-52
2023/01/25 06:08:26;;;;;;;60.78;35.95;;;;;;;;;;5054577;28;20102;-50
2023/01/25 06:10:53;;;;;;;60.53;35.83;;;;;;;;;;5055451;28;20127;-52
2023/01/25 06:13:21;;;;;;;61.60;36.35;;;;;;;;;;5054123;28;20203;-50
2023/01/25 06:15:53;;;;;;;60.83;36.50;;;;;;;;;;5055177;28;20179;-51
2023/01/25 06:18:20;;;;;;;59.47;36.88;;;;;;;;;;5053838;28;20044;-47
2023/01/25 06:20:46;;;;;;;58.15;35.47;;;;;;;;;;5055440;28;20067;-48
2023/01/25 06:23:12;;;;;;;58.63;36.42;;;;;;;;;;5054218;28;20078;-48
2023/01/25 06:25:38;;;;;;;55.60;34.85;;;;;;;;;;5054899;28;22084;-51
2023/01/25 06:28:04;;;;;;;56.30;34.95;;;;;;;;;;5055351;28;20458;-49
2023/01/25 06:30:30;;;;;;;57.00;34.25;;;;;;;;;;5052498;28;20460;-50
2023/01/25 06:33:00;;;;;;;59.03;36.15;;;;;;;;;;5054071;28;20071;-50
2023/01/25 06:35:26;;;;;;;58.95;34.05;;;;;;;;;;5054197;28;20040;-48
2023/01/25 06:37:55;;;;;;;55.47;34.08;;;;;;;;;;5054335;28;20217;-50
2023/01/25 06:40:21;;;;;;;60.20;34.85;;;;;;;;;;5054800;28;20049;-51
2023/01/25 06:42:47;;;;;;;55.50;33.80;;;;;;;;;;5055213;28;20052;-49
2023/01/25 06:45:13;;;;;;;54.78;32.10;;;-0.70;99.90;;;;;;5054615;28;20583;-47
2023/01/25 06:47:39;;;;;;;54.67;34.78;;;;;;;;;;5053940;28;20063;-50
2023/01/25 06:50:06;;;;;;;52.58;32.75;;;;;;;;;;5054366;28;20060;-47
2023/01/25 06:52:35;;;;;;;54.45;33.97;;;;;;;;;;5050847;28;20069;-53
2023/01/25 06:55:02;;;;;;;53.42;32.83;;;;;;;;;;5051246;28;20054;-48
2023/01/25 06:57:31;;;;;;;46.78;30.30;;;;;;;;;;5051910;28;20044;-50
2023/01/25 06:59:57;;;;;;;51.67;33.53;;;;;;;;;;5051671;28;20049;-51
2023/01/25 07:02:23;;;;;;;53.75;33.30;;;;;;;;;;5051784;28;20147;-50
2023/01/25 07:04:49;;;;;;;50.15;32.03;;;;;;;;;;5054802;28;20090;-51
2023/01/25 07:07:15;;;;;;;50.00;32.95;;;;;;;;;;5051134;28;20040;-50
2023/01/25 07:09:41;;;;;;;48.58;32.08;;;;;;;;;;5050830;28;20500;-48
2023/01/25 07:12:08;;;;;;;49.17;32.65;;;;;;;;;;5051514;28;20044;-50
2023/01/25 07:14:34;;;;;;;53.08;33.97;;;;;;;;;;5052731;28;20086;-51
2023/01/25 07:17:00;;;;;;;53.88;33.00;;;;;;;;;;5053505;28;20488;-49
2023/01/25 07:19:26;;;;;;;54.55;32.90;;;;;;;;;;5053385;28;20040;-48
2023/01/25 07:21:52;;;;;;;51.40;33.53;;;;;;;;;;5054902;28;20064;-51
2023/01/25 07:24:19;;;;;;;55.60;34.95;;;-0.70;99.90;;;;;;5050992;28;20040;-50
2023/01/25 07:26:45;;;;;;;56.45;34.47;;;;;;;;;;5054716;28;20759;-50
2023/01/25 07:29:14;;;;;;;55.42;34.28;;;-0.70;99.90;;;;;;5052075;28;20524;-51
2023/01/25 07:31:43;;;;;;;56.22;34.63;;;;;;;;;;5052051;28;20036;-50
2023/01/25 07:34:12;;;;;;;52.95;33.30;;;;;;;;;;5051525;28;20420;-50
2023/01/25 07:36:39;;;;;;;55.55;33.97;;;;;;;;;;5052063;28;21599;-51
2023/01/25 07:39:09;;;;;;;56.45;36.22;;;;;;;;;;5052895;28;20044;-51
2023/01/25 07:41:35;;;;;;;52.58;33.03;;;;;;;;;;5052318;28;20044;-56
2023/01/25 07:44:01;;;;;;;53.08;33.58;;;;;;;;;;5051801;28;20060;-49
2023/01/25 07:46:27;;;;;;;53.85;34.25;;;;;;;;;;5052268;28;20731;-50
2023/01/25 07:48:53;;;;;;;51.33;32.85;;;;;;;;;;5051154;28;20053;-52
2023/01/25 07:51:25;;;;;;;50.85;33.10;;;-0.70;99.90;;;;;;5050312;28;20431;-49
2023/01/25 07:53:58;;;;;;;57.58;34.17;;;;;;;;;;5053103;28;20094;-49
2023/01/25 07:56:25;;;;;;;53.90;33.20;;;;;;;;;;5052521;28;20497;-49
2023/01/25 07:58:53;;;;;;;65.18;40.55;;;;;;;;;;5052046;28;20043;-51
2023/01/25 08:01:20;;;;;;;63.45;40.90;;;;;;;;;;5050724;28;20036;-52
2023/01/25 08:03:47;;;;;;;54.13;34.08;;;;;;;;;;5051385;28;20090;-49
2023/01/25 08:06:13;;;;;;;60.53;37.63;;;;;;;;;;5051119;28;20459;-50
2023/01/25 08:08:44;;;;;;;59.92;37.80;;;-0.70;99.90;;;;;;5052041;28;20052;-51
2023/01/25 08:11:12;;;;;;;57.50;35.37;;;;;;;;;;5050873;28;20072;-49
2023/01/25 08:13:39;;;;;;;55.30;34.40;;;;;;;;;;5051842;28;20048;-52
2023/01/25 08:16:05;;;;;;;57.38;35.75;;;;;;;;;;5052037;28;20044;-50
2023/01/25 08:18:32;;;;;;;59.58;35.63;;;;;;;;;;5051840;28;20464;-51
2023/01/25 08:20:59;;;;;;;63.70;37.70;;;;;;;;;;5051716;28;20109;-51
2023/01/25 08:23:26;;;;;;;63.58;38.60;;;;;;;;;;5053464;28;20302;-52
2023/01/25 08:25:52;;;;;;;59.13;34.97;;;;;;;;;;5050806;28;20051;-51
2023/01/25 08:28:18;;;;;;;60.83;35.53;;;;;;;;;;5050978;28;20148;-52
2023/01/25 08:30:44;;;;;;;61.55;37.65;;;;;;;;;;5051278;28;20409;-51
2023/01/25 08:33:10;;;;;;;65.18;37.55;;;;;;;;;;5052171;28;20128;-49
2023/01/25 08:35:36;;;;;;;61.72;35.45;;;;;;;;;;5051486;28;20037;-50
2023/01/25 08:38:03;;;;;;;63.72;37.10;;;;;;;;;;5051932;28;20311;-50
2023/01/25 08:40:29;;;;;;;66.03;38.75;;;;;;;;;;5051321;28;20898;-51
2023/01/25 08:42:55;;;;;;;65.35;39.58;;;;;;;;;;5050568;28;20036;-50
2023/01/25 08:45:21;;;;;;;64.85;41.03;;;;;;;;;;5050005;28;20040;-49
2023/01/25 08:47:47;;;;;;;69.05;39.70;;;;;;;;;;5049790;28;20086;-50
2023/01/25 08:50:15;;;;;;;67.20;35.92;;;;;;;;;;5049670;28;20460;-52
2023/01/25 08:52:41;;;;;;;61.53;35.00;;;;;;;;;;5051063;28;20066;-48
2023/01/25 08:55:07;;;;;;;66.28;37.15;;;;;;;;;;5050646;28;20347;-49
2023/01/25 08:57:33;;;;;;;61.67;36.13;;;;;;;;;;5050417;28;20036;-48
2023/01/25 08:59:59;;;;;;;67.60;35.45;;;;;;;;;;5050955;28;20047;-50
2023/01/25 09:02:25;;;;;;;66.20;36.70;;;;;;;;;;5050169;28;20076;-49
2023/01/25 09:04:52;;;;;;;62.95;35.75;;;;;;;;;;5050597;28;20097;-48
2023/01/25 09:07:18;;;;;;;65.35;37.08;;;;;;;;;;5049470;28;20040;-48
2023/01/25 09:09:44;;;;;;;67.03;36.83;;;;;;;;;;5051268;28;20825;-48
2023/01/25 09:12:10;;;;;;;67.75;38.85;;;;;;;;;;5049228;28;20481;-49
2023/01/25 09:14:39;;;;;;;66.38;36.33;;;;;;;;;;5050350;28;20047;-51
2023/01/25 09:17:05;;;;;;;65.00;36.60;;;;;;;;;;5049642;28;20076;-50
2023/01/25 09:19:31;;;;;;;62.60;35.72;;;;;;;;;;5050716;28;20101;-49
2023/01/25 09:21:57;;;;;;;61.25;34.03;;;;;;;;;;5050545;28;20052;-50
2023/01/25 09:24:23;;;;;;;62.75;34.35;;;;;;;;;;5049616;28;20127;-49
2023/01/25 09:26:49;;;;;;;64.00;34.00;;;;;;;;;;5048616;28;20037;-50
2023/01/25 09:29:15;;;;;;;65.47;36.42;;;;;;;;;;5050684;28;20055;-47
2023/01/25 09:31:44;;;;;;;67.80;36.65;;;;;;;;;;5049727;28;20118;-51
2023/01/25 09:34:12;;;;;;;68.18;36.70;;;-0.20;99.90;;;;;;5049277;28;20663;-46
2023/01/25 09:36:38;;;;;;;67.78;36.08;;;;;;;;;;5048451;28;20613;-51
2023/01/25 09:39:04;;;;;;;67.90;35.38;;;;;;;;;;5049944;28;20032;-48
2023/01/25 09:41:51;;;;;;;61.65;34.58;;;-0.20;99.90;;;;;;5049363;28;20040;-48
2023/01/25 09:44:32;;;;;;;63.25;35.63;;;-0.10;99.90;;;;;;5050777;28;20045;-50
2023/01/25 09:46:59;;;;;;;68.22;37.42;;;;;;;;;;5050341;28;20063;-51
2023/01/25 09:49:25;;;;;;;72.53;40.05;;;;;;;;;;5050527;28;20781;-48
2023/01/25 09:51:58;;;;;;;64.28;35.75;;;;;;;;;;5050578;28;20635;-49
2023/01/25 09:54:27;;;;;;;60.08;33.17;;;;;;;;;;5050964;28;20090;-48
2023/01/25 09:56:54;;;;;;;60.33;30.83;;;;;;;;;;5051102;28;20056;-52
2023/01/25 09:59:25;;;;;;;62.47;33.67;;;;;;;;;;5051883;28;20480;-52
2023/01/25 10:02:02;;;;;;;64.80;34.03;;;;;;;;;;5050421;28;20062;-50
2023/01/25 10:04:34;;;;;;;63.30;32.28;;;-0.10;99.90;;;;;;5050160;28;20044;-48
2023/01/25 10:07:26;;;;;;;59.58;31.80;;;0.00;99.90;;;;;;5048891;28;21202;-50
2023/01/25 10:10:06;;;;;;;60.90;30.15;;;;;;;;;;5048717;28;20047;-50
2023/01/25 10:12:36;;;;;;;54.75;29.40;;;0.10;99.90;;;;;;5048671;28;20432;-50
2023/01/25 10:15:08;;;;;;;59.30;31.90;;;;;;;;;;5049246;28;20110;-48
2023/01/25 10:17:34;;;;;;;57.75;30.48;;;;;;;;;;5047876;28;20493;-49
2023/01/25 10:20:24;;;;;;;63.28;33.00;;;0.20;99.90;;;;;;5049086;28;20044;-49
2023/01/25 10:22:56;;;;;;;66.93;35.20;;;0.10;99.90;;;;;;5049436;28;20075;-50
2023/01/25 10:25:34;;;;;;;77.35;37.65;;;0.20;99.90;;;;;;5049097;28;20131;-49
2023/01/25 10:28:19;;;;;;;71.75;37.63;;;;;;;;;;5050565;28;20080;-50
2023/01/25 10:31:09;;;;;;;62.10;33.72;;;0.20;99.90;;;;;;5049508;28;20040;-50
2023/01/25 10:33:38;;;;;;;71.47;35.63;;;;;;;;;;5048520;28;20129;-51
2023/01/25 10:36:04;;;;;;;64.40;35.10;;;;;;;;;;5053581;28;20059;-48
2023/01/25 10:38:36;;;;;;;64.95;34.63;;;;;;;;;;5052728;28;20122;-49
2023/01/25 10:41:05;;;;;;;63.97;32.97;;;;;;;;;;5052521;28;20055;-50
2023/01/25 10:43:31;;;;;;;56.78;30.40;;;;;;;;;;5052555;28;20119;-51
2023/01/25 10:45:57;;;;;;;58.92;29.90;;;;;;;;;;5052035;28;20060;-51
2023/01/25 10:48:28;;;;;;;60.50;31.80;;;0.40;99.90;;;;;;5052672;28;20071;-53
2023/01/25 10:50:56;;;;;;;65.05;31.77;;;;;;;;;;5051567;28;20690;-47
2023/01/25 10:53:25;;;;;;;64.85;30.92;;;0.60;99.90;;;;;;5054136;28;20057;-45
2023/01/25 10:56:09;;;;;;;68.20;32.75;;;0.50;99.90;;;;;;5054299;28;20127;-51
2023/01/25 10:58:38;;;;;;;70.05;33.67;;;0.60;99.90;;;;;;5053658;28;20054;-51
2023/01/25 11:01:05;;;;;;;67.97;32.15;;;;;;;;;;5052502;28;20072;-49
2023/01/25 11:03:45;;;;;;;64.78;30.98;;;;;;;;;;5052601;28;20044;-49
2023/01/25 11:06:11;;;;;;;71.75;30.98;;;;;;;;;;5052858;28;20452;-49
2023/01/25 11:08:41;;;;;;;67.45;32.97;;;0.50;99.90;;;;;;5053912;28;20386;-51
2023/01/25 11:11:14;;;;;;;64.35;30.17;;;;;;;;;;5052531;28;20043;-49
2023/01/25 11:13:40;;;;;;;;;;;0.50;99.90;;;;;;5052811;28;20089;-52
2023/01/25 11:16:27;;;;;;;75.40;31.20;;;;;;;;;;5054446;28;20389;-52
2023/01/25 11:18:54;;;;;;;74.65;31.58;;;0.50;99.90;;;;;;5052610;28;20143;-51
2023/01/25 11:21:50;;;;;;;72.93;34.28;;;0.60;99.90;;;;;;5051977;28;20049;-49
2023/01/25 11:24:16;;;;;;;77.97;33.20;;;0.50;99.90;;;;;;5053523;28;20036;-48
2023/01/25 11:26:43;;;;;;;70.40;33.03;;;;;;;;;;5052315;28;20421;-52
2023/01/25 11:29:18;;;;;;;77.88;32.78;;;0.70;99.90;;;;;;5053695;28;20044;-49
2023/01/25 11:31:48;;;;;;;69.97;31.40;;;0.70;99.90;;;;;;5083883;28;20123;-48
2023/01/25 11:34:15;;;;;;;74.30;32.63;;;;;;;;;;5051484;28;20306;-51
2023/01/25 11:36:51;;;;;;;79.70;31.83;;;;;;;;;;5051902;28;20032;-49
2023/01/25 11:39:28;;;;;;;84.00;34.47;;;0.80;99.90;;;;;;5052872;28;20036;-50
2023/01/25 11:42:22;;;;;;;70.43;32.28;;;0.70;99.90;;;;;;5051364;28;22707;-49
2023/01/25 11:45:00;;;;;;;70.80;28.80;;;;;;;;;;5051785;28;20127;-49
2023/01/25 11:47:49;;;;;;;74.50;31.88;;;0.80;99.90;;;;;;5050442;28;20584;-49
2023/01/25 11:50:26;;;;;;;78.60;33.47;;;0.80;99.90;;;;;;5050991;28;20056;-46
2023/01/25 11:52:55;;;;;;;73.25;31.40;;;;;;;;;;5052057;28;20125;-48
2023/01/25 11:55:28;;;;;;;78.50;32.33;;;;;;;;;;5052133;28;20071;-46
2023/01/25 11:58:24;;;;;;;76.88;32.50;;;0.90;99.90;;;;;;5051981;28;20118;-50
2023/01/25 12:01:12;;;;;;;73.10;31.15;;;0.80;99.90;;;;;;5051445;28;20048;-51
2023/01/25 12:03:50;;;;;;;75.13;30.58;;;;;;;;;;5050815;28;20041;-48
2023/01/25 12:06:26;;;;;;;65.50;27.98;;;0.90;99.90;;;;;;5050732;28;20100;-49
2023/01/25 12:08:52;;;;;;;75.13;30.75;;;;;;;;;;5053261;28;20053;-51
2023/01/25 12:11:39;;;;;;;72.90;30.90;;;0.90;99.90;;;;;;5050350;28;20051;-51
2023/01/25 12:14:33;;;;;;;70.65;31.05;;;1.00;99.90;;;;;;5051075;28;20100;-47
2023/01/25 12:17:14;;;;;;;78.30;30.27;;;;;;;;;;5050971;28;20048;-47
2023/01/25 12:20:12;;;;;;;73.32;29.52;;;1.10;99.90;;;;;;5052056;28;20135;-49
2023/01/25 12:22:44;;;;;;;72.10;28.35;;;;;;;;;;5050604;28;20040;-51
2023/01/25 12:25:16;;;;;;;83.80;29.92;;;;;;;;;;5051808;28;20037;-49
2023/01/25 12:27:42;;;;;;;73.63;30.15;;;;;;;;;;5051887;28;20040;-48
2023/01/25 12:30:23;;;;;;;77.03;30.90;;;0.70;99.90;;;;;;5053179;28;20044;-52
2023/01/25 12:32:49;;;;;;;84.88;32.05;;;;;;;;;;5052396;28;20095;-51
2023/01/25 12:35:32;;;;;;;83.05;30.40;;;;;;;;;;5052010;28;20536;-49
2023/01/25 12:38:05;;;;;;;89.03;32.30;;;0.80;99.90;;;;;;5052050;28;20405;-50
2023/01/25 12:40:42;;;;;;;81.50;30.73;;;0.90;99.90;;;;;;5051219;28;20879;-47
2023/01/25 12:43:29;;;;;;;81.35;30.60;;;1.00;99.90;;;;;;5052749;28;20067;-49
2023/01/25 12:45:56;;;;;;;83.32;31.92;;;1.00;99.90;;;;;;5050190;28;20588;-49
2023/01/25 12:48:34;;;;;;;79.85;30.73;;;;;;;;;;5051803;28;20556;-50
2023/01/25 12:51:00;;;;;;;83.10;31.92;;;;;;;;;;5051513;28;20055;-51
2023/01/25 12:53:33;;;;;;;84.38;31.80;;;;;;;;;;5050390;28;20124;-47
2023/01/25 12:55:59;;;;;;;88.20;35.10;;;0.90;99.90;;;;;;5050378;28;20123;-48
2023/01/25 12:58:40;;;;;;;80.55;29.65;;;1.00;99.90;;;;;;5049742;28;20141;-50
2023/01/25 13:01:06;;;;;;;80.07;29.80;;;;;;;;;;5051530;28;20898;-47
2023/01/25 13:03:57;;;;;;;76.60;30.23;;;1.00;99.90;;;;;;5050043;28;20512;-46
2023/01/25 13:06:51;;;;;;;77.00;31.70;;;1.10;99.90;;;;;;5050176;28;20612;-48
2023/01/25 13:09:38;;;;;;;73.47;27.33;;;1.00;99.90;;;;;;5051334;28;20083;-51
2023/01/25 13:12:04;;;;;;;80.68;29.77;;;;;;;;;;5049243;28;20059;-48
2023/01/25 13:14:38;;;;;;;82.80;31.83;;;;;;;;;;5050521;28;20497;-48
2023/01/25 13:17:30;;;;;;;81.72;29.65;;;1.00;99.90;;;;;;5050085;28;20569;-51
2023/01/25 13:19:56;;;;;;;82.38;30.15;;;;;;;;;;5051358;28;20045;-51
2023/01/25 13:22:45;;;;;;;82.93;30.30;;;1.00;99.90;;;;;;5049486;28;21150;-50
2023/01/25 13:25:20;;;;;;;72.13;28.75;;;1.10;99.90;;;;;;5050600;28;20527;-49
2023/01/25 13:27:47;;;;;;;81.50;32.65;;;;;;;;;;5050409;28;20808;-48
2023/01/25 13:30:28;;;;;;;75.05;29.25;;;1.00;99.90;;;;;;5050135;28;20132;-51
2023/01/25 13:32:54;;;;;;;82.85;33.55;;;;;;;;;;5049786;28;20045;-50
2023/01/25 13:35:31;;;;;;;79.75;31.00;;;1.00;99.90;;;;;;5050419;28;20036;-50
2023/01/25 13:38:24;;;;;;;82.22;30.67;;;1.00;99.90;;;;;;5050559;28;20056;-50
2023/01/25 13:41:22;;;;;;;79.97;32.05;;;;;;;;;;5049677;28;20848;-47
2023/01/25 13:43:53;;;;;;;86.28;32.75;;;;;;;;;;5013492;28;20171;-50
2023/01/25 13:46:23;;;;;;;88.47;32.70;;;1.10;99.90;;;;;;5049576;28;20071;-51
2023/01/25 13:48:57;;;;;;;87.97;34.00;;;1.00;99.90;;;;;;5049823;28;20049;-51
2023/01/25 13:51:25;;;;;;;85.43;33.88;;;1.10;99.90;;;;;;5050603;28;21245;-49
2023/01/25 13:53:57;;;;;;;90.55;31.92;;;1.10;99.90;;;;;;5051339;28;20159;-51
2023/01/25 13:56:26;;;;;;;78.03;28.40;;;1.20;99.90;;;;;;5051302;28;20040;-50
2023/01/25 13:58:52;;;;;;;77.20;29.55;;;;;;;;;;5051349;28;20044;-51
2023/01/25 14:01:19;;;;;;;78.50;33.28;;;1.10;99.90;;;;;;5050443;28;20097;-50
2023/01/25 14:03:58;;;;;;;77.97;30.88;;;1.10;99.90;;;;;;5050721;28;20385;-49
2023/01/25 14:06:26;;;;;;;75.68;30.13;;;;;;;;;;5050209;28;20048;-49
2023/01/25 14:08:53;;;;;;;84.78;32.08;;;;;;;;;;5052683;28;20779;-51